createdAt,value
2019-04-03T00:00:42.444Z,53.23
2019-04-03T00:03:10.959Z,54.42
2019-04-03T00:05:39.429Z,57.95
2019-04-03T00:08:08.128Z,66.82
2019-04-03T00:10:38.100Z,64.35
2019-04-03T00:13:06.972Z,66.30
2019-04-03T00:15:35.452Z,59.75
2019-04-03T00:18:03.931Z,59.18
2019-04-03T00:20:32.526Z,62.67
2019-04-03T00:23:01.023Z,76.72
2019-04-03T00:25:29.535Z,76.77
2019-04-03T00:27:58.019Z,73.78
2019-04-03T00:30:26.572Z,74.75
2019-04-03T00:32:55.080Z,72.47
2019-04-03T00:35:23.933Z,71.50
2019-04-03T00:37:53.603Z,52.13
2019-04-03T00:40:22.745Z,47.10
2019-04-03T00:42:54.103Z,41.98
2019-04-03T00:45:24.487Z,38.55
2019-04-03T00:47:55.340Z,36.23
2019-04-03T00:50:23.444Z,35.68
2019-04-03T00:52:53.577Z,33.13
2019-04-03T00:55:22.041Z,37.65
2019-04-03T00:57:50.509Z,32.63
2019-04-03T01:00:19.126Z,32.20
2019-04-03T01:02:47.612Z,34.90
2019-04-03T01:05:16.286Z,32.50
2019-04-03T01:07:44.950Z,37.70
2019-04-03T01:10:14.285Z,36.25
2019-04-03T01:12:42.786Z,32.88
2019-04-03T01:15:11.521Z,34.63
2019-04-03T01:17:39.985Z,33.33
2019-04-03T01:20:09.084Z,31.93
2019-04-03T01:22:37.863Z,33.05
2019-04-03T01:25:08.975Z,32.58
2019-04-03T01:27:37.869Z,32.58
2019-04-03T01:30:08.282Z,31.12
2019-04-03T01:32:36.908Z,33.28
2019-04-03T01:35:08.952Z,39.42
2019-04-03T01:37:36.311Z,40.90
2019-04-03T01:40:06.555Z,40.38
2019-04-03T01:42:34.975Z,52.30
2019-04-03T01:45:03.875Z,61.65
2019-04-03T01:47:32.476Z,62.73
2019-04-03T01:50:00.962Z,59.35
2019-04-03T01:52:31.308Z,51.25
2019-04-03T01:54:59.649Z,55.00
2019-04-03T01:57:28.351Z,62.25
2019-04-03T01:59:56.897Z,53.70
2019-04-03T02:02:25.523Z,54.35
2019-04-03T02:04:53.994Z,58.68
2019-04-03T02:07:22.497Z,87.22
2019-04-03T02:09:51.234Z,81.05
2019-04-03T02:12:20.482Z,79.10
2019-04-03T02:14:50.977Z,70.20
2019-04-03T02:17:19.288Z,78.35
2019-04-03T02:19:47.757Z,77.82
2019-04-03T02:22:16.272Z,78.25
2019-04-03T02:24:44.759Z,42.73
2019-04-03T02:27:13.509Z,34.95
2019-04-03T02:29:42.166Z,32.45
2019-04-03T02:32:10.630Z,29.45
2019-04-03T02:34:39.128Z,28.42
2019-04-03T02:37:07.749Z,26.87
2019-04-03T02:39:36.247Z,31.87
2019-04-03T02:42:07.774Z,31.30
2019-04-03T02:44:35.264Z,28.15
2019-04-03T02:47:03.995Z,26.75
2019-04-03T02:49:32.469Z,27.07
2019-04-03T02:52:01.247Z,25.45
2019-04-03T02:54:34.440Z,25.52
2019-04-03T02:57:01.438Z,24.27
2019-04-03T02:59:30.094Z,25.37
2019-04-03T03:01:58.688Z,25.57
2019-04-03T03:04:27.350Z,25.15
2019-04-03T03:06:56.012Z,24.90
2019-04-03T03:09:24.590Z,25.12
2019-04-03T03:11:56.305Z,25.35
2019-04-03T03:14:24.013Z,25.75
2019-04-03T03:16:53.226Z,26.55
2019-04-03T03:19:24.183Z,25.60
2019-04-03T03:21:55.844Z,25.10
2019-04-03T03:24:28.480Z,23.02
2019-04-03T03:26:55.319Z,23.30
2019-04-03T03:29:26.915Z,23.92
2019-04-03T03:32:13.135Z,25.33
2019-04-03T03:34:47.697Z,27.15
2019-04-03T03:39:27.455Z,25.08
2019-04-03T03:41:58.581Z,25.50
2019-04-03T03:44:28.470Z,25.77
2019-04-03T03:47:01.145Z,27.13
2019-04-03T03:49:30.068Z,29.20
2019-04-03T03:52:02.620Z,29.10
2019-04-03T03:54:30.920Z,28.35
2019-04-03T03:57:04.266Z,28.07
2019-04-03T03:59:30.797Z,28.85
2019-04-03T04:02:03.252Z,28.52
2019-04-03T04:04:30.023Z,28.60
2019-04-03T04:07:02.024Z,29.67
2019-04-03T04:09:29.351Z,31.60
2019-04-03T04:11:58.880Z,31.82
2019-04-03T04:14:28.307Z,30.97
2019-04-03T04:16:57.250Z,32.73
2019-04-03T04:19:28.470Z,32.93
2019-04-03T04:21:56.532Z,32.53
2019-04-03T04:24:27.624Z,31.20
2019-04-03T04:26:55.927Z,30.10
2019-04-03T04:29:25.052Z,30.65
2019-04-03T04:31:53.628Z,30.40
2019-04-03T04:34:22.098Z,30.12
2019-04-03T04:36:50.665Z,29.42
2019-04-03T04:39:19.367Z,28.40
2019-04-03T04:41:48.008Z,27.70
2019-04-03T04:44:16.510Z,26.70
2019-04-03T04:46:45.148Z,26.07
2019-04-03T04:49:13.903Z,26.70
2019-04-03T04:51:42.678Z,26.55
2019-04-03T04:54:11.130Z,27.42
2019-04-03T04:56:39.633Z,26.70
2019-04-03T04:59:08.104Z,27.65
2019-04-03T05:01:36.718Z,27.25
2019-04-03T05:04:05.120Z,27.15
2019-04-03T05:06:33.605Z,27.30
2019-04-03T05:09:03.844Z,27.90
2019-04-03T05:11:32.289Z,28.92
2019-04-03T05:14:00.822Z,28.65
2019-04-03T05:16:29.391Z,29.72
2019-04-03T05:19:08.677Z,28.02
2019-04-03T05:21:28.399Z,28.02
2019-04-03T05:24:10.155Z,28.98
2019-04-03T05:26:27.389Z,26.25
2019-04-03T05:28:57.709Z,28.47
2019-04-03T05:31:26.118Z,27.15
2019-04-03T05:33:54.731Z,28.77
2019-04-03T05:36:23.318Z,26.68
2019-04-03T05:38:53.764Z,26.33
2019-04-03T05:41:22.034Z,41.55
2019-04-03T05:43:50.505Z,36.17
2019-04-03T05:46:19.641Z,28.67
2019-04-03T05:48:48.664Z,27.93
2019-04-03T05:51:17.165Z,27.15
2019-04-03T05:53:45.938Z,27.50
2019-04-03T05:56:14.404Z,27.42
2019-04-03T05:58:54.630Z,40.35
2019-04-03T06:01:13.453Z,49.80
2019-04-03T06:03:44.944Z,30.43
2019-04-03T06:06:14.002Z,30.08
2019-04-03T06:08:42.559Z,26.75
2019-04-03T06:11:11.125Z,26.68
2019-04-03T06:13:39.876Z,27.10
2019-04-03T06:16:08.458Z,27.30
2019-04-03T06:18:36.927Z,29.00
2019-04-03T06:21:05.504Z,29.12
2019-04-03T06:23:33.975Z,31.05
2019-04-03T06:26:03.050Z,29.07
2019-04-03T06:28:31.743Z,32.65
2019-04-03T06:31:00.354Z,36.70
2019-04-03T06:33:31.426Z,27.45
2019-04-03T06:35:59.084Z,28.38
2019-04-03T06:38:27.782Z,25.80
2019-04-03T06:40:56.219Z,24.18
2019-04-03T06:43:24.704Z,24.43
2019-04-03T06:45:53.175Z,25.12
2019-04-03T06:48:21.741Z,24.27
2019-04-03T06:50:50.313Z,26.77
2019-04-03T06:53:18.806Z,24.50
2019-04-03T06:55:47.471Z,24.20
2019-04-03T06:58:15.942Z,23.67
2019-04-03T07:00:46.440Z,25.57
2019-04-03T07:03:14.637Z,32.40
2019-04-03T07:05:43.191Z,42.62
2019-04-03T07:08:11.741Z,23.67
2019-04-03T07:10:40.455Z,27.50
2019-04-03T07:13:08.971Z,26.42
2019-04-03T07:15:37.475Z,25.00
2019-04-03T07:18:06.721Z,22.40
2019-04-03T07:20:35.398Z,24.40
2019-04-03T07:23:03.899Z,23.25
2019-04-03T07:25:33.972Z,24.98
2019-04-03T07:28:02.861Z,23.75
2019-04-03T07:30:31.356Z,24.25
2019-04-03T07:33:00.081Z,23.05
2019-04-03T07:35:28.743Z,24.63
2019-04-03T07:37:57.217Z,23.25
2019-04-03T07:40:25.701Z,24.80
2019-04-03T07:42:55.985Z,26.15
2019-04-03T07:45:25.831Z,24.70
2019-04-03T07:47:54.537Z,24.65
2019-04-03T07:50:23.392Z,24.95
2019-04-03T07:52:51.925Z,25.55
2019-04-03T07:55:20.590Z,25.12
2019-04-03T07:57:50.644Z,26.40
2019-04-03T08:00:19.487Z,26.30
2019-04-03T08:02:49.943Z,29.12
2019-04-03T08:05:18.492Z,26.62
2019-04-03T08:07:47.005Z,25.37
2019-04-03T08:10:16.284Z,25.12
2019-04-03T08:12:45.025Z,31.93
2019-04-03T08:15:14.104Z,25.60
2019-04-03T08:17:42.603Z,25.32
2019-04-03T08:20:11.543Z,24.47
2019-04-03T08:22:40.197Z,27.05
2019-04-03T08:25:12.109Z,26.25
2019-04-03T08:27:39.282Z,34.38
2019-04-03T08:30:08.863Z,26.12
2019-04-03T08:32:37.609Z,27.82
2019-04-03T08:35:19.419Z,24.75
2019-04-03T08:37:40.646Z,25.43
2019-04-03T08:40:08.914Z,25.45
2019-04-03T08:42:37.499Z,51.13
2019-04-03T08:45:10.727Z,34.20
2019-04-03T08:47:39.554Z,23.42
2019-04-03T08:50:10.772Z,24.60
2019-04-03T08:52:39.715Z,62.88
2019-04-03T08:55:08.863Z,101.92
2019-04-03T08:57:37.682Z,25.57
2019-04-03T09:00:10.846Z,24.95
2019-04-03T09:02:42.468Z,23.90
2019-04-03T09:05:09.864Z,23.57
2019-04-03T09:07:38.333Z,41.25
2019-04-03T09:10:08.319Z,30.95
2019-04-03T09:12:38.449Z,53.92
2019-04-03T09:15:10.099Z,25.97
2019-04-03T09:17:39.397Z,24.63
2019-04-03T09:20:08.849Z,35.75
2019-04-03T09:22:37.550Z,25.92
2019-04-03T09:25:07.830Z,23.10
2019-04-03T09:27:37.955Z,22.93
2019-04-03T09:30:09.599Z,23.32
2019-04-03T09:32:38.086Z,22.90
2019-04-03T09:35:07.796Z,23.85
2019-04-03T09:37:38.078Z,35.10
2019-04-03T09:40:07.272Z,29.25
2019-04-03T09:42:35.742Z,22.02
2019-04-03T09:45:06.140Z,24.47
2019-04-03T09:47:34.995Z,28.60
2019-04-03T09:50:08.762Z,26.00
2019-04-03T09:52:41.508Z,26.37
2019-04-03T09:55:08.340Z,21.07
2019-04-03T09:57:36.850Z,41.33
2019-04-03T10:00:10.589Z,20.35
2019-04-03T10:02:40.091Z,24.45
2019-04-03T10:05:09.011Z,20.82
2019-04-03T10:07:37.607Z,19.95
2019-04-03T10:10:08.404Z,26.23
2019-04-03T10:12:36.952Z,38.85
2019-04-03T10:15:07.836Z,18.57
2019-04-03T10:17:38.222Z,18.98
2019-04-03T10:20:10.487Z,18.82
2019-04-03T10:25:08.287Z,21.40
2019-04-03T10:27:36.926Z,19.55
2019-04-03T10:30:08.557Z,18.02
2019-04-03T10:32:37.049Z,20.92
2019-04-03T10:35:08.226Z,27.35
2019-04-03T10:37:37.286Z,36.98
2019-04-03T10:40:08.009Z,17.73
2019-04-03T10:42:36.836Z,15.28
2019-04-03T10:45:08.499Z,24.27
2019-04-03T10:47:42.019Z,27.40
2019-04-03T10:50:08.309Z,65.37
2019-04-03T10:52:36.947Z,18.10
2019-04-03T10:55:06.987Z,19.05
2019-04-03T10:57:36.146Z,19.82
2019-04-03T11:00:07.770Z,26.80
2019-04-03T11:02:36.615Z,20.82
2019-04-03T11:05:07.561Z,15.23
2019-04-03T11:07:36.098Z,15.97
2019-04-03T11:10:07.124Z,17.00
2019-04-03T11:12:35.615Z,21.05
2019-04-03T11:15:06.982Z,16.42
2019-04-03T11:17:35.513Z,16.85
2019-04-03T11:20:09.714Z,22.82
2019-04-03T11:22:41.852Z,20.95
2019-04-03T11:25:13.983Z,15.03
2019-04-03T11:30:17.035Z,11.38
2019-04-03T11:32:42.779Z,18.40
2019-04-03T11:35:13.823Z,13.55
2019-04-03T11:37:43.746Z,16.20
2019-04-03T11:40:13.924Z,26.45
2019-04-03T11:42:42.358Z,13.93
2019-04-03T11:45:11.413Z,11.68
2019-04-03T11:47:39.883Z,12.23
2019-04-03T11:50:10.198Z,13.60
2019-04-03T11:52:38.984Z,12.73
2019-04-03T11:55:10.873Z,11.43
2019-04-03T11:57:38.204Z,13.40
2019-04-03T12:00:13.443Z,12.88
2019-04-03T12:02:44.023Z,17.48
2019-04-03T12:05:15.317Z,19.48
2019-04-03T12:07:43.375Z,59.05
2019-04-03T12:10:12.528Z,23.05
2019-04-03T12:12:42.073Z,61.40
2019-04-03T12:15:11.947Z,12.88
2019-04-03T12:17:41.600Z,15.55
2019-04-03T12:20:11.034Z,19.70
2019-04-03T12:22:39.603Z,25.05
2019-04-03T12:25:08.708Z,15.50
2019-04-03T12:27:37.205Z,45.10
2019-04-03T12:30:08.421Z,47.55
2019-04-03T12:32:42.876Z,22.73
2019-04-03T12:35:09.843Z,19.95
2019-04-03T12:37:38.499Z,41.20
2019-04-03T12:40:08.385Z,29.82
2019-04-03T12:42:36.914Z,24.18
2019-04-03T12:45:09.490Z,24.10
2019-04-03T12:47:38.237Z,14.80
2019-04-03T12:50:08.543Z,20.00
2019-04-03T12:52:37.061Z,15.72
2019-04-03T12:55:07.504Z,38.53
2019-04-03T12:57:38.960Z,46.13
2019-04-03T13:00:12.947Z,14.70
2019-04-03T13:02:42.567Z,12.85
2019-04-03T13:05:11.194Z,16.50
2019-04-03T13:07:39.651Z,14.30
2019-04-03T13:10:10.124Z,14.90
2019-04-03T13:12:39.200Z,11.35
2019-04-03T13:15:11.643Z,13.03
2019-04-03T13:17:43.248Z,14.20
2019-04-03T13:20:11.304Z,12.55
2019-04-03T13:22:42.151Z,13.68
2019-04-03T13:25:10.727Z,11.00
2019-04-03T13:27:39.768Z,11.65
2019-04-03T13:30:13.833Z,11.48
2019-04-03T13:32:56.735Z,11.83
2019-04-03T13:35:16.441Z,10.03
2019-04-03T13:37:45.181Z,13.98
2019-04-03T13:40:14.587Z,14.20
2019-04-03T13:42:43.057Z,18.50
2019-04-03T13:45:11.976Z,18.05
2019-04-03T13:47:42.215Z,18.48
2019-04-03T13:50:11.607Z,25.25
2019-04-03T13:52:43.488Z,19.17
2019-04-03T13:55:10.618Z,18.52
2019-04-03T13:57:39.510Z,29.85
2019-04-03T14:00:18.146Z,30.95
2019-04-03T14:02:40.095Z,35.33
2019-04-03T14:05:09.902Z,35.15
2019-04-03T14:07:41.788Z,51.92
2019-04-03T14:10:12.140Z,29.85
2019-04-03T14:12:44.161Z,21.17
2019-04-03T14:15:11.198Z,38.17
2019-04-03T14:17:39.799Z,26.75
2019-04-03T14:20:12.044Z,36.23
2019-04-03T14:25:19.871Z,43.60
2019-04-03T14:27:39.556Z,33.92
2019-04-03T14:30:11.135Z,28.50
2019-04-03T14:32:39.987Z,39.92
2019-04-03T14:35:41.230Z,29.92
2019-04-03T14:37:40.016Z,34.18
2019-04-03T14:40:12.265Z,39.50
2019-04-03T14:42:39.742Z,31.45
2019-04-03T14:45:08.986Z,38.40
2019-04-03T14:47:37.701Z,24.18
2019-04-03T14:50:07.448Z,35.80
2019-04-03T14:52:36.330Z,33.28
2019-04-03T14:55:18.111Z,25.60
2019-04-03T14:57:37.476Z,33.33
2019-04-03T15:00:23.350Z,30.37
2019-04-03T15:02:40.389Z,28.52
2019-04-03T15:05:10.163Z,22.52
2019-04-03T15:07:38.698Z,30.27
2019-04-03T15:10:08.503Z,26.20
2019-04-03T15:12:39.875Z,17.42
2019-04-03T15:15:09.639Z,21.73
2019-04-03T15:17:38.896Z,21.30
2019-04-03T15:20:09.460Z,23.05
2019-04-03T15:22:38.172Z,30.23
2019-04-03T15:25:07.520Z,30.27
2019-04-03T15:27:36.034Z,25.62
2019-04-03T15:30:09.357Z,27.25
2019-04-03T15:32:36.771Z,28.70
2019-04-03T15:35:07.983Z,35.08
2019-04-03T15:37:40.078Z,54.05
2019-04-03T15:40:07.304Z,43.13
2019-04-03T15:42:38.487Z,39.55
2019-04-03T15:45:09.160Z,23.27
2019-04-03T15:47:41.905Z,26.02
2019-04-03T15:50:08.707Z,33.15
2019-04-03T15:52:37.346Z,37.93
2019-04-03T15:55:07.754Z,36.68
2019-04-03T15:57:39.124Z,25.90
2019-04-03T16:00:12.456Z,33.10
2019-04-03T16:02:44.360Z,29.98
2019-04-03T16:05:12.210Z,30.95
2019-04-03T16:07:42.418Z,28.62
2019-04-03T16:10:11.829Z,32.03
2019-04-03T16:12:42.956Z,70.25
2019-04-03T16:15:11.008Z,58.90
2019-04-03T16:17:39.861Z,52.55
2019-04-03T16:20:08.820Z,59.55
2019-04-03T16:22:37.281Z,63.85
2019-04-03T16:25:07.403Z,62.75
2019-04-03T16:27:36.326Z,54.93
2019-04-03T16:30:09.794Z,96.02
2019-04-03T16:32:39.050Z,72.40
2019-04-03T16:35:09.062Z,50.95
2019-04-03T16:37:38.324Z,48.80
2019-04-03T16:40:08.237Z,63.68
2019-04-03T16:42:37.091Z,52.62
2019-04-03T16:45:09.367Z,46.15
2019-04-03T16:47:38.021Z,56.18
2019-04-03T16:50:11.218Z,44.45
2019-04-03T16:52:40.050Z,35.33
2019-04-03T16:55:09.192Z,33.85
2019-04-03T16:57:38.157Z,67.27
2019-04-03T17:00:10.025Z,26.07
2019-04-03T17:02:39.004Z,29.20
2019-04-03T17:05:10.485Z,26.60
2019-04-03T17:07:38.606Z,33.28
2019-04-03T17:10:09.994Z,31.68
2019-04-03T17:12:38.170Z,32.80
2019-04-03T17:15:08.521Z,32.53
2019-04-03T17:17:37.016Z,33.53
2019-04-03T17:20:08.038Z,35.40
2019-04-03T17:22:39.419Z,38.10
2019-04-03T17:25:07.967Z,37.08
2019-04-03T17:27:36.478Z,41.45
2019-04-03T17:30:10.273Z,51.33
2019-04-03T17:32:39.220Z,51.98
2019-04-03T17:35:08.951Z,68.97
2019-04-03T17:37:37.566Z,54.73
2019-04-03T17:40:09.133Z,68.97
2019-04-03T17:42:39.308Z,46.28
2019-04-03T17:45:09.724Z,58.30
2019-04-03T17:47:38.207Z,65.12
2019-04-03T17:50:08.240Z,86.08
2019-04-03T17:52:37.079Z,63.75
2019-04-03T17:55:10.131Z,55.33
2019-04-03T17:57:39.160Z,62.23
2019-04-03T18:00:16.081Z,58.02
2019-04-03T18:02:45.127Z,67.25
2019-04-03T18:05:14.036Z,52.58
2019-04-03T18:07:42.545Z,61.40
2019-04-03T18:10:12.983Z,43.50
2019-04-03T18:12:41.713Z,50.98
2019-04-03T18:15:11.687Z,47.48
2019-04-03T18:17:40.227Z,79.00
2019-04-03T18:20:12.514Z,52.30
2019-04-03T18:22:39.771Z,41.90
2019-04-03T18:25:08.892Z,41.77
2019-04-03T18:27:37.477Z,36.77
2019-04-03T18:30:11.145Z,38.00
2019-04-03T18:32:38.787Z,34.35
2019-04-03T18:35:08.102Z,45.48
2019-04-03T18:37:36.600Z,35.95
2019-04-03T18:40:07.247Z,39.33
2019-04-03T18:42:35.721Z,57.55
2019-04-03T18:45:06.077Z,41.25
2019-04-03T18:47:41.268Z,55.98
2019-04-03T18:50:09.798Z,56.33
2019-04-03T18:52:38.600Z,56.20
2019-04-03T18:55:08.046Z,50.80
2019-04-03T18:57:36.600Z,61.15
2019-04-03T19:00:08.261Z,55.48
2019-04-03T19:02:36.744Z,39.53
2019-04-03T19:05:10.057Z,31.68
2019-04-03T19:07:37.644Z,34.45
2019-04-03T19:10:07.891Z,34.18
2019-04-03T19:12:36.740Z,55.00
2019-04-03T19:15:06.658Z,65.70
2019-04-03T19:17:35.148Z,87.70
2019-04-03T19:20:10.605Z,88.70
2019-04-03T19:22:35.565Z,84.70
2019-04-03T19:25:07.985Z,86.87
2019-04-03T19:27:36.500Z,88.37
2019-04-03T19:30:07.896Z,90.07
2019-04-03T19:32:36.663Z,77.30
2019-04-03T19:35:09.224Z,73.40
2019-04-03T19:40:09.695Z,65.75
2019-04-03T19:42:37.363Z,57.03
2019-04-03T19:45:07.700Z,55.08
2019-04-03T19:47:36.329Z,47.50
2019-04-03T19:50:07.352Z,48.73
2019-04-03T19:52:37.445Z,45.17
2019-04-03T19:55:07.639Z,37.73
2019-04-03T19:57:36.118Z,35.10
2019-04-03T20:00:06.327Z,33.67
2019-04-03T20:02:37.708Z,40.92
2019-04-03T20:05:07.074Z,56.95
2019-04-03T20:07:35.556Z,46.13
2019-04-03T20:10:11.101Z,32.88
2019-04-03T20:12:39.572Z,29.92
2019-04-03T20:15:08.892Z,25.68
2019-04-03T20:17:37.394Z,24.35
2019-04-03T20:20:07.778Z,25.27
2019-04-03T20:22:37.877Z,23.73
2019-04-03T20:25:07.413Z,21.50
2019-04-03T20:27:36.266Z,23.05
2019-04-03T20:30:09.140Z,21.62
2019-04-03T20:32:39.845Z,20.55
2019-04-03T20:35:08.092Z,20.88
2019-04-03T20:37:36.590Z,19.48
2019-04-03T20:40:06.807Z,18.80
2019-04-03T20:42:35.356Z,19.50
2019-04-03T20:45:05.800Z,20.55
2019-04-03T20:47:34.248Z,20.10
2019-04-03T20:50:06.709Z,19.60
2019-04-03T20:52:34.780Z,19.17
2019-04-03T20:55:06.169Z,22.55
2019-04-03T20:57:34.641Z,25.60
2019-04-03T21:00:04.824Z,26.68
2019-04-03T21:02:33.296Z,27.70
2019-04-03T21:05:01.792Z,26.93
2019-04-03T21:07:30.272Z,25.72
2019-04-03T21:10:00.642Z,25.65
2019-04-03T21:12:29.011Z,26.42
2019-04-03T21:15:07.797Z,27.52
2019-04-03T21:17:27.684Z,27.98
2019-04-03T21:19:56.158Z,27.55
2019-04-03T21:22:24.644Z,30.60
2019-04-03T21:24:53.133Z,29.18
2019-04-03T21:27:21.624Z,30.20
2019-04-03T21:29:50.123Z,38.80
2019-04-03T21:32:18.595Z,48.20
2019-04-03T21:34:47.116Z,60.00
2019-04-03T21:37:15.589Z,58.02
2019-04-03T21:39:44.456Z,50.23
2019-04-03T21:42:13.031Z,41.92
2019-04-03T21:44:41.532Z,30.55
2019-04-03T21:47:11.645Z,29.82
2019-04-03T21:49:40.218Z,36.08
2019-04-03T21:52:08.719Z,31.97
2019-04-03T21:54:37.185Z,33.42
2019-04-03T21:57:06.757Z,41.83
2019-04-03T21:59:35.415Z,48.00
2019-04-03T22:02:04.251Z,41.92
2019-04-03T22:04:32.754Z,40.17
2019-04-03T22:07:01.221Z,37.88
2019-04-03T22:09:30.795Z,43.20
2019-04-03T22:11:59.778Z,37.30
2019-04-03T22:14:28.252Z,36.20
2019-04-03T22:16:56.746Z,28.95
2019-04-03T22:19:27.400Z,27.42
2019-04-03T22:21:55.619Z,25.80
2019-04-03T22:24:24.195Z,24.85
2019-04-03T22:26:52.656Z,26.55
2019-04-03T22:29:21.248Z,26.75
2019-04-03T22:31:53.719Z,24.67
2019-04-03T22:34:20.833Z,23.45
2019-04-03T22:36:49.336Z,24.65
2019-04-03T22:39:17.803Z,20.68
2019-04-03T22:41:46.282Z,18.30
2019-04-03T22:44:16.861Z,18.80
2019-04-03T22:46:44.978Z,20.15
2019-04-03T22:49:13.452Z,19.17
2019-04-03T22:51:41.996Z,19.77
2019-04-03T22:54:10.853Z,19.73
2019-04-03T22:56:40.660Z,19.98
2019-04-03T22:59:09.144Z,20.77
2019-04-03T23:01:37.641Z,39.58
2019-04-03T23:04:06.121Z,32.15
2019-04-03T23:06:34.597Z,24.60
2019-04-03T23:09:04.724Z,19.77
2019-04-03T23:11:33.560Z,20.85
2019-04-03T23:14:04.731Z,19.12
2019-04-03T23:16:33.310Z,21.20
2019-04-03T23:19:01.790Z,23.00
2019-04-03T23:21:30.260Z,23.70
2019-04-03T23:23:58.747Z,22.35
2019-04-03T23:26:27.257Z,20.80
2019-04-03T23:28:55.762Z,23.27
2019-04-03T23:31:24.267Z,26.45
2019-04-03T23:33:52.739Z,24.63
2019-04-03T23:36:23.056Z,27.50
2019-04-03T23:38:51.431Z,26.02
2019-04-03T23:41:19.943Z,25.88
2019-04-03T23:43:48.423Z,25.08
2019-04-03T23:46:16.908Z,23.35
2019-04-03T23:48:48.645Z,27.80
2019-04-03T23:51:23.088Z,25.32
2019-04-03T23:53:45.830Z,22.27
2019-04-03T23:56:14.314Z,21.48
2019-04-03T23:58:42.819Z,20.82
